createdAt,value
2022-12-13T00:00:55.053Z,-3.30
2022-12-13T00:03:42.789Z,-3.30
2022-12-13T00:06:31.309Z,-3.40
2022-12-13T00:09:19.664Z,-3.50
2022-12-13T00:12:06.576Z,-3.50
2022-12-13T00:14:52.983Z,-3.60
2022-12-13T00:17:39.740Z,-3.60
2022-12-13T00:20:27.352Z,-3.60
2022-12-13T00:23:13.787Z,-3.60
2022-12-13T00:26:04.308Z,-3.50
2022-12-13T00:28:52.882Z,-3.60
2022-12-13T00:34:46.435Z,-3.60
2022-12-13T00:37:34.185Z,-3.60
2022-12-13T00:40:21.197Z,-3.60
2022-12-13T00:43:08.022Z,-3.60
2022-12-13T00:45:54.714Z,-3.50
2022-12-13T00:48:41.904Z,-3.40
2022-12-13T00:51:30.909Z,-3.40
2022-12-13T00:54:18.670Z,-3.40
2022-12-13T00:57:05.338Z,-3.40
2022-12-13T00:59:51.819Z,-3.40
2022-12-13T01:02:38.454Z,-3.60
2022-12-13T01:06:03.841Z,-3.50
2022-12-13T01:08:31.547Z,-3.50
2022-12-13T01:11:20.095Z,-3.60
2022-12-13T01:14:07.055Z,-3.60
2022-12-13T01:16:55.673Z,-3.70
2022-12-13T01:19:42.789Z,-3.80
2022-12-13T01:22:29.380Z,-3.70
2022-12-13T01:25:15.999Z,-3.60
2022-12-13T01:28:04.249Z,-3.60
2022-12-13T01:30:58.067Z,-3.60
2022-12-13T01:33:44.869Z,-3.60
2022-12-13T01:36:31.390Z,-3.60
2022-12-13T01:39:26.286Z,-3.60
2022-12-13T01:42:15.711Z,-3.60
2022-12-13T01:45:07.263Z,-3.80
2022-12-13T01:47:57.581Z,-3.90
2022-12-13T01:50:48.767Z,-3.90
2022-12-13T01:53:39.352Z,-3.90
2022-12-13T01:56:32.872Z,-4.00
2022-12-13T01:59:19.996Z,-3.90
2022-12-13T02:02:10.334Z,-4.00
2022-12-13T02:05:04.691Z,-4.00
2022-12-13T02:07:52.420Z,-3.90
2022-12-13T02:10:39.591Z,-3.90
2022-12-13T02:13:26.459Z,-3.90
2022-12-13T02:16:23.123Z,-4.00
2022-12-13T02:19:38.544Z,-4.10
2022-12-13T02:22:45.651Z,-4.00
2022-12-13T02:25:50.234Z,-4.00
2022-12-13T02:28:54.775Z,-3.90
2022-12-13T02:31:51.538Z,-4.00
2022-12-13T02:34:40.728Z,-4.10
2022-12-13T02:37:34.109Z,-4.10
2022-12-13T02:40:27.314Z,-4.10
2022-12-13T02:43:16.886Z,-4.10
2022-12-13T02:46:11.013Z,-4.10
2022-12-13T02:49:01.336Z,-4.00
2022-12-13T02:51:48.969Z,-4.00
2022-12-13T02:54:35.528Z,-4.00
2022-12-13T02:57:31.889Z,-3.90
2022-12-13T03:00:21.726Z,-3.90
2022-12-13T03:03:18.750Z,-3.90
2022-12-13T03:06:33.860Z,-4.00
2022-12-13T03:09:33.045Z,-4.00
2022-12-13T03:12:44.910Z,-4.00
2022-12-13T03:15:38.348Z,-3.90
2022-12-13T03:18:27.229Z,-3.90
2022-12-13T03:21:14.979Z,-3.90
2022-12-13T03:24:01.513Z,-3.90
2022-12-13T03:26:49.899Z,-3.90
2022-12-13T03:29:36.447Z,-3.90
2022-12-13T03:32:23.299Z,-3.80
2022-12-13T03:35:22.160Z,-3.70
2022-12-13T03:38:10.434Z,-3.70
2022-12-13T03:40:59.496Z,-3.70
2022-12-13T03:43:47.101Z,-3.60
2022-12-13T03:46:34.023Z,-3.50
2022-12-13T03:49:20.871Z,-3.60
2022-12-13T03:52:07.687Z,-3.70
2022-12-13T03:54:55.440Z,-3.80
2022-12-13T03:57:41.922Z,-3.70
2022-12-13T04:00:28.328Z,-3.80
2022-12-13T04:03:15.064Z,-3.80
2022-12-13T04:06:01.795Z,-3.80
2022-12-13T04:08:48.321Z,-3.90
2022-12-13T04:11:56.550Z,-3.90
2022-12-13T04:14:44.383Z,-4.00
2022-12-13T04:17:31.318Z,-4.00
2022-12-13T04:20:17.933Z,-3.90
2022-12-13T04:23:10.486Z,-3.70
2022-12-13T04:25:57.282Z,-3.80
2022-12-13T04:28:49.384Z,-3.70
2022-12-13T04:31:39.335Z,-3.60
2022-12-13T04:34:26.493Z,-3.50
2022-12-13T04:37:13.114Z,-3.40
2022-12-13T04:40:00.990Z,-3.30
2022-12-13T04:42:47.947Z,-3.30
2022-12-13T04:45:42.414Z,-3.40
2022-12-13T04:48:31.272Z,-3.60
2022-12-13T04:51:18.226Z,-3.60
2022-12-13T04:54:23.593Z,-3.70
2022-12-13T04:57:12.427Z,-3.70
2022-12-13T04:59:58.852Z,-3.80
2022-12-13T05:02:46.670Z,-3.90
2022-12-13T05:05:33.277Z,-3.90
2022-12-13T05:08:19.833Z,-3.70
2022-12-13T05:11:07.413Z,-3.70
2022-12-13T05:13:54.170Z,-3.60
2022-12-13T05:16:40.718Z,-3.60
2022-12-13T05:19:30.432Z,-3.70
2022-12-13T05:22:20.890Z,-3.70
2022-12-13T05:25:08.742Z,-3.70
2022-12-13T05:27:57.317Z,-3.80
2022-12-13T05:30:45.036Z,-4.10
2022-12-13T05:33:32.189Z,-4.10
2022-12-13T05:36:22.465Z,-4.00
2022-12-13T05:39:28.189Z,-4.00
2022-12-13T05:42:15.579Z,-3.90
2022-12-13T05:45:01.950Z,-3.80
2022-12-13T05:47:48.997Z,-3.70
2022-12-13T05:50:38.106Z,-3.60
2022-12-13T05:53:30.607Z,-3.70
2022-12-13T05:56:22.698Z,-3.70
2022-12-13T05:59:09.997Z,-3.90
2022-12-13T06:01:56.534Z,-3.80
2022-12-13T06:04:43.170Z,-3.70
2022-12-13T06:07:29.758Z,-3.70
2022-12-13T06:10:21.955Z,-3.70
2022-12-13T06:13:21.855Z,-3.80
2022-12-13T06:16:22.509Z,-3.70
2022-12-13T06:19:10.552Z,-3.70
2022-12-13T06:21:57.008Z,-3.80
2022-12-13T06:24:43.368Z,-3.70
2022-12-13T06:27:31.159Z,-3.80
2022-12-13T06:30:17.451Z,-3.70
2022-12-13T06:33:03.925Z,-3.90
2022-12-13T06:35:52.533Z,-4.00
2022-12-13T06:38:43.553Z,-4.00
2022-12-13T06:41:32.185Z,-3.80
2022-12-13T06:44:20.356Z,-3.90
2022-12-13T06:47:10.241Z,-3.80
2022-12-13T06:49:59.267Z,-3.80
2022-12-13T06:52:52.065Z,-3.80
2022-12-13T06:55:38.539Z,-3.90
2022-12-13T06:58:25.600Z,-3.90
2022-12-13T07:01:24.732Z,-3.90
2022-12-13T07:04:29.393Z,-3.90
2022-12-13T07:07:17.060Z,-4.10
2022-12-13T07:10:03.571Z,-3.90
2022-12-13T07:12:51.345Z,-3.90
2022-12-13T07:15:38.245Z,-3.80
2022-12-13T07:18:26.263Z,-3.90
2022-12-13T07:21:21.920Z,-3.90
2022-12-13T07:24:09.272Z,-3.90
2022-12-13T07:26:55.862Z,-3.80
2022-12-13T07:29:42.625Z,-3.80
2022-12-13T07:32:29.261Z,-3.70
2022-12-13T07:35:17.146Z,-3.60
2022-12-13T07:38:03.549Z,-3.50
2022-12-13T07:40:49.773Z,-3.50
2022-12-13T07:43:38.904Z,-3.60
2022-12-13T07:46:33.452Z,-3.50
2022-12-13T07:49:20.749Z,-3.70
2022-12-13T07:52:11.686Z,-3.80
2022-12-13T07:54:58.354Z,-3.90
2022-12-13T07:57:44.840Z,-3.80
2022-12-13T08:00:31.336Z,-3.70
2022-12-13T08:03:25.777Z,-3.80
2022-12-13T08:06:13.771Z,-3.80
2022-12-13T08:09:03.917Z,-3.90
2022-12-13T08:11:50.323Z,-4.00
2022-12-13T08:14:36.705Z,-4.00
2022-12-13T08:17:23.277Z,-3.90
2022-12-13T08:20:10.574Z,-3.90
2022-12-13T08:23:02.011Z,-4.00
2022-12-13T08:25:54.021Z,-3.90
2022-12-13T08:28:41.050Z,-3.80
2022-12-13T08:31:27.854Z,-3.70
2022-12-13T08:34:20.831Z,-3.70
2022-12-13T08:37:07.291Z,-3.50
2022-12-13T08:39:53.576Z,-3.30
2022-12-13T08:42:41.616Z,-3.10
2022-12-13T08:45:28.395Z,-3.00
2022-12-13T08:48:14.963Z,-3.00
2022-12-13T08:51:02.993Z,-2.90
2022-12-13T08:53:49.450Z,-2.70
2022-12-13T08:56:36.062Z,-2.80
2022-12-13T08:59:26.086Z,-3.00
2022-12-13T09:02:14.479Z,-3.10
2022-12-13T09:05:01.267Z,-3.10
2022-12-13T09:07:48.272Z,-2.90
2022-12-13T09:10:38.528Z,-2.90
2022-12-13T09:13:31.585Z,-3.00
2022-12-13T09:16:24.419Z,-3.00
2022-12-13T09:19:25.161Z,-3.00
2022-12-13T09:22:14.550Z,-3.10
2022-12-13T09:25:02.410Z,-3.10
2022-12-13T09:27:49.571Z,-3.00
2022-12-13T09:30:36.245Z,-2.90
2022-12-13T09:33:29.707Z,-2.80
2022-12-13T09:36:20.203Z,-2.80
2022-12-13T09:39:06.821Z,-2.80
2022-12-13T09:42:01.384Z,-2.70
2022-12-13T09:45:03.141Z,-2.60
2022-12-13T09:47:52.439Z,-2.60
2022-12-13T09:50:58.359Z,-2.50
2022-12-13T09:53:47.873Z,-2.50
2022-12-13T09:56:34.631Z,-2.50
2022-12-13T09:59:26.066Z,-2.50
2022-12-13T10:02:17.450Z,-2.50
2022-12-13T10:05:22.769Z,-2.40
2022-12-13T10:08:16.207Z,-2.20
2022-12-13T10:11:03.758Z,-2.20
2022-12-13T10:13:58.362Z,-2.00
2022-12-13T10:16:52.611Z,-2.10
2022-12-13T10:19:42.082Z,-2.20
2022-12-13T10:22:28.539Z,-2.10
2022-12-13T10:25:16.641Z,-1.90
2022-12-13T10:28:07.281Z,-1.90
2022-12-13T10:30:53.789Z,-1.80
2022-12-13T10:33:43.794Z,-1.80
2022-12-13T10:36:33.688Z,-1.80
2022-12-13T10:39:37.218Z,-1.80
2022-12-13T10:42:30.545Z,-1.70
2022-12-13T10:45:24.402Z,-1.80
2022-12-13T10:48:21.291Z,-1.90
2022-12-13T10:51:10.117Z,-1.90
2022-12-13T10:53:59.213Z,-1.80
2022-12-13T10:56:49.417Z,-1.80
2022-12-13T10:59:39.514Z,-1.90
2022-12-13T11:02:32.787Z,-1.70
2022-12-13T11:05:23.716Z,-1.60
2022-12-13T11:08:16.471Z,-1.70
2022-12-13T11:11:04.791Z,-1.70
2022-12-13T11:13:54.049Z,-1.70
2022-12-13T11:16:43.105Z,-1.70
2022-12-13T11:19:38.233Z,-1.70
2022-12-13T11:22:27.822Z,-1.50
2022-12-13T11:25:22.812Z,-1.50
2022-12-13T11:28:28.093Z,-1.60
2022-12-13T11:31:22.799Z,-1.40
2022-12-13T11:34:19.844Z,-1.40
2022-12-13T11:37:18.954Z,-1.30
2022-12-13T11:40:15.544Z,-1.40
2022-12-13T11:43:08.535Z,-1.50
2022-12-13T11:45:56.711Z,-1.50
2022-12-13T11:48:48.067Z,-1.30
2022-12-13T11:51:44.029Z,-1.20
2022-12-13T11:54:38.986Z,-1.20
2022-12-13T11:57:44.002Z,-1.40
2022-12-13T12:00:37.012Z,-1.40
2022-12-13T12:03:35.274Z,-1.40
2022-12-13T12:06:24.385Z,-1.30
2022-12-13T12:09:16.460Z,-1.20
2022-12-13T12:12:10.252Z,-1.10
2022-12-13T12:15:05.282Z,-1.10
2022-12-13T12:18:02.140Z,-1.10
2022-12-13T12:21:01.298Z,-1.20
2022-12-13T12:24:03.656Z,-1.10
2022-12-13T12:27:00.993Z,-1.10
2022-12-13T12:30:05.424Z,-0.90
2022-12-13T12:33:05.020Z,-0.70
2022-12-13T12:36:22.289Z,-0.90
2022-12-13T12:39:34.764Z,-0.90
2022-12-13T12:42:56.438Z,-1.00
2022-12-13T12:45:56.708Z,-0.90
2022-12-13T12:49:11.947Z,-0.90
2022-12-13T12:52:05.771Z,-0.80
2022-12-13T12:55:03.182Z,-0.80
2022-12-13T12:58:02.797Z,-0.80
2022-12-13T13:00:59.747Z,-0.70
2022-12-13T13:03:48.455Z,-0.70
2022-12-13T13:06:39.728Z,-0.70
2022-12-13T13:09:26.750Z,-0.50
2022-12-13T13:12:29.680Z,-0.50
2022-12-13T13:15:53.461Z,-0.40
2022-12-13T13:18:51.676Z,-0.40
2022-12-13T13:21:47.668Z,-0.40
2022-12-13T13:24:34.720Z,-0.50
2022-12-13T13:27:30.211Z,-0.50
2022-12-13T13:30:20.257Z,-0.60
2022-12-13T13:33:43.869Z,-0.60
2022-12-13T13:36:47.614Z,-0.60
2022-12-13T13:39:57.692Z,-0.50
2022-12-13T13:43:09.463Z,-0.60
2022-12-13T13:46:01.297Z,-0.50
2022-12-13T13:49:00.866Z,-0.50
2022-12-13T13:52:26.168Z,-0.60
2022-12-13T13:55:50.722Z,-0.60
2022-12-13T13:59:25.437Z,-0.60
2022-12-13T14:02:49.561Z,-0.70
2022-12-13T14:06:28.220Z,-0.80
2022-12-13T14:10:00.576Z,-0.90
2022-12-13T14:13:28.633Z,-1.00
2022-12-13T14:17:02.463Z,-1.00
2022-12-13T14:20:20.560Z,-1.10
2022-12-13T14:23:21.806Z,-1.10
2022-12-13T14:26:23.581Z,-1.10
2022-12-13T14:29:15.243Z,-1.10
2022-12-13T14:32:02.061Z,-1.20
2022-12-13T14:34:50.422Z,-1.20
2022-12-13T14:37:37.749Z,-1.20
2022-12-13T14:40:29.822Z,-1.30
2022-12-13T14:43:25.058Z,-1.30
2022-12-13T14:46:15.780Z,-1.30
2022-12-13T14:49:07.625Z,-1.40
2022-12-13T14:52:01.147Z,-1.40
2022-12-13T14:54:50.055Z,-1.40
2022-12-13T14:57:54.008Z,-1.50
2022-12-13T15:00:41.671Z,-1.50
2022-12-13T15:03:29.471Z,-1.60
2022-12-13T15:06:19.697Z,-1.50
2022-12-13T15:09:06.339Z,-1.60
2022-12-13T15:11:53.918Z,-1.60
2022-12-13T15:14:44.536Z,-1.60
2022-12-13T15:17:34.302Z,-1.70
2022-12-13T15:20:43.021Z,-1.70
2022-12-13T15:23:48.739Z,-1.70
2022-12-13T15:26:48.086Z,-1.80
2022-12-13T15:29:36.489Z,-1.80
2022-12-13T15:32:24.249Z,-1.80
2022-12-13T15:35:17.996Z,-1.80
2022-12-13T15:38:05.285Z,-1.90
2022-12-13T15:40:51.797Z,-1.80
2022-12-13T15:43:45.332Z,-1.80
2022-12-13T15:46:35.892Z,-1.80
2022-12-13T15:49:28.192Z,-1.80
2022-12-13T15:52:32.858Z,-1.80
2022-12-13T15:55:28.760Z,-1.80
2022-12-13T15:58:26.666Z,-1.80
2022-12-13T16:01:27.055Z,-1.80
2022-12-13T16:04:24.881Z,-1.80
2022-12-13T16:07:24.212Z,-1.80
2022-12-13T16:10:19.723Z,-1.80
2022-12-13T16:13:08.626Z,-1.80
2022-12-13T16:16:00.209Z,-1.80
2022-12-13T16:18:57.578Z,-1.80
2022-12-13T16:21:45.366Z,-1.90
2022-12-13T16:24:32.191Z,-1.80
2022-12-13T16:27:18.645Z,-1.80
2022-12-13T16:30:14.785Z,-1.80
2022-12-13T16:36:10.183Z,-1.80
2022-12-13T16:38:58.375Z,-1.70
2022-12-13T16:41:46.571Z,-1.70
2022-12-13T16:44:37.378Z,-1.60
2022-12-13T16:47:40.395Z,-1.70
2022-12-13T16:50:31.362Z,-1.70
2022-12-13T16:53:18.293Z,-1.70
2022-12-13T16:56:06.862Z,-1.70
2022-12-13T16:58:53.604Z,-1.70
2022-12-13T17:01:40.086Z,-1.80
2022-12-13T17:04:27.980Z,-1.80
2022-12-13T17:07:14.437Z,-1.90
2022-12-13T17:10:01.275Z,-2.00
2022-12-13T17:12:49.124Z,-2.00
2022-12-13T17:15:35.476Z,-2.00
2022-12-13T17:18:22.427Z,-1.90
2022-12-13T17:21:09.719Z,-1.90
2022-12-13T17:23:56.660Z,-2.00
2022-12-13T17:26:54.404Z,-2.00
2022-12-13T17:29:43.532Z,-2.10
2022-12-13T17:32:30.146Z,-2.00
2022-12-13T17:35:18.569Z,-2.00
2022-12-13T17:38:05.339Z,-2.00
2022-12-13T17:40:54.694Z,-2.00
2022-12-13T17:43:42.508Z,-2.10
2022-12-13T17:46:31.049Z,-2.10
2022-12-13T17:49:17.719Z,-2.00
2022-12-13T17:52:03.943Z,-2.10
2022-12-13T17:54:50.212Z,-2.10
2022-12-13T17:57:37.222Z,-2.10
2022-12-13T18:00:24.025Z,-2.00
2022-12-13T18:03:12.346Z,-2.00
2022-12-13T18:06:00.324Z,-2.00
2022-12-13T18:08:47.246Z,-2.00
2022-12-13T18:11:35.112Z,-2.00
2022-12-13T18:14:22.190Z,-2.00
2022-12-13T18:17:08.543Z,-2.00
2022-12-13T18:19:56.204Z,-2.10
2022-12-13T18:22:46.921Z,-2.00
2022-12-13T18:25:36.297Z,-2.00
2022-12-13T18:28:22.819Z,-2.00
2022-12-13T18:31:11.942Z,-2.00
2022-12-13T18:33:59.783Z,-2.00
2022-12-13T18:36:47.448Z,-2.00
2022-12-13T18:39:34.930Z,-2.00
2022-12-13T18:42:21.360Z,-1.90
2022-12-13T18:45:08.489Z,-1.90
2022-12-13T18:47:55.063Z,-1.90
2022-12-13T18:50:47.104Z,-1.90
2022-12-13T18:53:38.998Z,-2.00
2022-12-13T18:56:26.072Z,-1.90
2022-12-13T18:59:12.656Z,-1.90
2022-12-13T19:01:59.058Z,-1.80
2022-12-13T19:04:55.413Z,-1.90
2022-12-13T19:07:42.130Z,-1.90
2022-12-13T19:10:30.056Z,-1.80
2022-12-13T19:13:16.379Z,-1.80
2022-12-13T19:16:06.818Z,-1.80
2022-12-13T19:18:53.570Z,-1.70
2022-12-13T19:21:40.216Z,-1.70
2022-12-13T19:24:26.596Z,-1.70
2022-12-13T19:27:14.381Z,-1.70
2022-12-13T19:30:01.843Z,-1.70
2022-12-13T19:32:48.460Z,-1.70
2022-12-13T19:35:35.341Z,-1.70
2022-12-13T19:38:21.947Z,-1.70
2022-12-13T19:41:09.744Z,-1.70
2022-12-13T19:43:57.687Z,-1.70
2022-12-13T19:46:44.294Z,-1.70
2022-12-13T19:49:30.837Z,-1.70
2022-12-13T19:52:17.180Z,-1.70
2022-12-13T19:55:03.743Z,-1.70
2022-12-13T19:57:50.133Z,-1.70
2022-12-13T20:00:37.886Z,-1.70
2022-12-13T20:03:25.335Z,-1.60
2022-12-13T20:06:15.836Z,-1.60
2022-12-13T20:09:02.479Z,-1.70
2022-12-13T20:11:48.944Z,-1.70
2022-12-13T20:14:35.588Z,-1.70
2022-12-13T20:17:23.634Z,-1.70
2022-12-13T20:20:11.478Z,-1.70
2022-12-13T20:22:58.191Z,-1.70
2022-12-13T20:25:45.063Z,-1.70
2022-12-13T20:28:34.138Z,-1.80
2022-12-13T20:31:22.786Z,-1.70
2022-12-13T20:34:14.319Z,-1.70
2022-12-13T20:37:00.771Z,-1.70
2022-12-13T20:39:47.661Z,-1.70
2022-12-13T20:42:34.990Z,-1.70
2022-12-13T20:45:21.892Z,-1.70
2022-12-13T20:48:08.511Z,-1.70
2022-12-13T20:51:01.385Z,-1.70
2022-12-13T20:53:49.523Z,-1.70
2022-12-13T20:56:39.396Z,-1.70
2022-12-13T20:59:25.856Z,-1.70
2022-12-13T21:02:12.841Z,-1.70
2022-12-13T21:04:59.309Z,-1.60
2022-12-13T21:08:04.635Z,-1.60
2022-12-13T21:10:51.283Z,-1.60
2022-12-13T21:13:37.779Z,-1.60
2022-12-13T21:16:25.862Z,-1.60
2022-12-13T21:19:15.201Z,-1.60
2022-12-13T21:22:02.049Z,-1.60
2022-12-13T21:24:49.725Z,-1.60
2022-12-13T21:27:36.138Z,-1.60
2022-12-13T21:30:23.309Z,-1.70
2022-12-13T21:33:09.910Z,-1.60
2022-12-13T21:35:56.447Z,-1.70
2022-12-13T21:38:43.919Z,-1.70
2022-12-13T21:41:33.182Z,-1.70
2022-12-13T21:44:20.110Z,-1.80
2022-12-13T21:47:14.200Z,-1.70
2022-12-13T21:50:00.672Z,-1.70
2022-12-13T21:52:49.793Z,-1.70
2022-12-13T21:55:43.358Z,-1.70
2022-12-13T21:58:57.380Z,-1.70
2022-12-13T22:02:08.687Z,-1.70
2022-12-13T22:04:56.661Z,-1.60
2022-12-13T22:07:43.550Z,-1.70
2022-12-13T22:10:34.865Z,-1.70
2022-12-13T22:13:21.458Z,-1.80
2022-12-13T22:16:11.172Z,-1.80
2022-12-13T22:18:58.581Z,-1.80
2022-12-13T22:21:45.410Z,-1.80
2022-12-13T22:24:32.055Z,-1.70
2022-12-13T22:27:23.192Z,-1.70
2022-12-13T22:30:11.400Z,-1.70
2022-12-13T22:32:59.533Z,-1.70
2022-12-13T22:35:46.237Z,-1.70
2022-12-13T22:38:32.685Z,-1.70
2022-12-13T22:41:19.205Z,-1.70
2022-12-13T22:44:06.080Z,-1.70
2022-12-13T22:46:55.023Z,-1.70
2022-12-13T22:49:42.774Z,-1.70
2022-12-13T22:52:33.762Z,-1.80
2022-12-13T22:55:21.574Z,-1.70
2022-12-13T22:58:08.118Z,-1.70
2022-12-13T23:00:54.466Z,-1.70
2022-12-13T23:03:41.943Z,-1.70
2022-12-13T23:06:31.796Z,-1.70
2022-12-13T23:09:18.260Z,-1.60
2022-12-13T23:12:22.486Z,-1.70
2022-12-13T23:15:10.647Z,-1.70
2022-12-13T23:17:57.043Z,-1.70
2022-12-13T23:20:43.505Z,-1.70
2022-12-13T23:23:36.327Z,-1.60
2022-12-13T23:26:25.338Z,-1.60
2022-12-13T23:29:11.948Z,-1.60
2022-12-13T23:31:58.837Z,-1.60
2022-12-13T23:34:45.153Z,-1.60
2022-12-13T23:37:31.526Z,-1.50
2022-12-13T23:40:19.987Z,-1.50
2022-12-13T23:43:06.454Z,-1.50
2022-12-13T23:45:53.473Z,-1.40
2022-12-13T23:48:40.369Z,-1.40
2022-12-13T23:51:28.441Z,-1.40
2022-12-13T23:54:17.655Z,-1.40
2022-12-13T23:57:06.426Z,-1.30
2022-12-13T23:59:52.874Z,-1.30
